createdAt,value
2018-06-24T00:01:01.434Z,58.05
2018-06-24T00:03:30.095Z,57.93
2018-06-24T00:05:58.720Z,58.11
2018-06-24T00:08:27.361Z,58.35
2018-06-24T00:10:56.065Z,58.40
2018-06-24T00:13:24.698Z,57.78
2018-06-24T00:15:53.351Z,58.53
2018-06-24T00:18:21.969Z,57.29
2018-06-24T00:20:50.627Z,58.01
2018-06-24T00:23:19.300Z,57.67
2018-06-24T00:25:48.058Z,57.71
2018-06-24T00:28:16.686Z,57.49
2018-06-24T00:30:45.326Z,57.76
2018-06-24T00:33:13.946Z,57.78
2018-06-24T00:35:42.669Z,57.95
2018-06-24T00:38:11.325Z,57.37
2018-06-24T00:40:40.046Z,58.32
2018-06-24T00:43:08.679Z,57.44
2018-06-24T00:45:37.283Z,58.47
2018-06-24T00:48:05.974Z,58.00
2018-06-24T00:50:34.608Z,58.26
2018-06-24T00:53:03.368Z,58.66
2018-06-24T00:55:31.983Z,58.20
2018-06-24T00:58:00.686Z,57.98
2018-06-24T01:00:29.338Z,57.67
2018-06-24T01:02:57.947Z,57.99
2018-06-24T01:05:26.607Z,58.42
2018-06-24T01:07:55.258Z,58.74
2018-06-24T01:10:23.850Z,58.86
2018-06-24T01:12:52.516Z,58.83
2018-06-24T01:15:21.179Z,59.77
2018-06-24T01:17:49.833Z,58.88
2018-06-24T01:20:18.551Z,58.94
2018-06-24T01:22:47.242Z,59.61
2018-06-24T01:25:15.846Z,60.00
2018-06-24T01:27:44.430Z,59.17
2018-06-24T01:30:13.088Z,59.02
2018-06-24T01:32:41.711Z,59.48
2018-06-24T01:35:10.439Z,59.20
2018-06-24T01:37:39.039Z,60.40
2018-06-24T01:40:07.710Z,59.02
2018-06-24T01:42:36.344Z,59.86
2018-06-24T01:45:04.989Z,60.05
2018-06-24T01:47:33.628Z,59.92
2018-06-24T01:50:02.258Z,60.15
2018-06-24T01:52:30.881Z,60.26
2018-06-24T01:54:59.495Z,60.37
2018-06-24T01:57:28.110Z,60.30
2018-06-24T01:59:56.723Z,60.32
2018-06-24T02:02:25.404Z,60.53
2018-06-24T02:04:54.036Z,60.19
2018-06-24T02:07:22.755Z,60.62
2018-06-24T02:09:51.361Z,59.71
2018-06-24T02:12:20.030Z,60.09
2018-06-24T02:14:48.655Z,59.74
2018-06-24T02:17:17.302Z,60.60
2018-06-24T02:19:46.002Z,60.04
2018-06-24T02:22:14.761Z,61.02
2018-06-24T02:24:43.398Z,60.82
2018-06-24T02:27:12.079Z,60.83
2018-06-24T02:29:40.788Z,60.71
2018-06-24T02:32:09.402Z,60.79
2018-06-24T02:34:38.031Z,61.32
2018-06-24T02:37:06.895Z,61.22
2018-06-24T02:39:35.518Z,60.73
2018-06-24T02:42:04.181Z,61.71
2018-06-24T02:44:32.879Z,62.19
2018-06-24T02:47:01.871Z,62.11
2018-06-24T02:49:30.577Z,61.68
2018-06-24T02:51:59.241Z,61.87
2018-06-24T02:54:27.835Z,62.29
2018-06-24T02:56:56.508Z,62.50
2018-06-24T02:59:25.176Z,62.44
2018-06-24T03:01:53.857Z,62.54
2018-06-24T03:04:22.472Z,62.37
2018-06-24T03:06:51.157Z,62.91
2018-06-24T03:09:19.872Z,62.75
2018-06-24T03:11:48.564Z,63.06
2018-06-24T03:14:17.239Z,62.47
2018-06-24T03:16:45.865Z,63.12
2018-06-24T03:19:14.460Z,62.53
2018-06-24T03:21:43.113Z,62.59
2018-06-24T03:24:11.745Z,63.20
2018-06-24T03:26:40.367Z,62.41
2018-06-24T03:29:09.054Z,61.44
2018-06-24T03:31:37.719Z,61.69
2018-06-24T03:34:06.559Z,61.68
2018-06-24T03:36:35.227Z,61.51
2018-06-24T03:39:04.028Z,61.86
2018-06-24T03:41:32.658Z,62.54
2018-06-24T03:44:01.515Z,62.64
2018-06-24T03:46:30.131Z,62.34
2018-06-24T03:48:59.290Z,62.59
2018-06-24T03:51:27.919Z,63.15
2018-06-24T03:53:56.566Z,63.45
2018-06-24T03:56:25.166Z,63.43
2018-06-24T03:58:53.850Z,64.12
2018-06-24T04:01:22.486Z,63.90
2018-06-24T04:03:51.113Z,64.21
2018-06-24T04:06:19.804Z,64.12
2018-06-24T04:08:48.442Z,64.67
2018-06-24T04:11:17.053Z,64.14
2018-06-24T04:13:45.722Z,64.67
2018-06-24T04:16:14.348Z,64.37
2018-06-24T04:18:43.874Z,64.14
2018-06-24T04:21:15.550Z,64.72
2018-06-24T04:23:45.297Z,64.17
2018-06-24T04:26:14.058Z,64.80
2018-06-24T04:28:42.746Z,62.76
2018-06-24T04:31:12.068Z,64.14
2018-06-24T04:33:41.061Z,64.01
2018-06-24T04:36:09.712Z,64.19
2018-06-24T04:38:38.600Z,63.51
2018-06-24T04:41:07.357Z,60.08
2018-06-24T04:43:35.970Z,60.51
2018-06-24T04:46:04.628Z,61.13
2018-06-24T04:48:33.243Z,60.87
2018-06-24T04:51:01.876Z,61.01
2018-06-24T04:53:30.550Z,60.17
2018-06-24T04:55:59.196Z,59.60
2018-06-24T04:58:27.830Z,60.05
2018-06-24T05:00:56.886Z,59.52
2018-06-24T05:03:25.564Z,59.28
2018-06-24T05:05:54.312Z,59.40
2018-06-24T05:08:22.972Z,60.34
2018-06-24T05:10:51.682Z,59.12
2018-06-24T05:13:20.348Z,59.97
2018-06-24T05:15:49.058Z,59.18
2018-06-24T05:18:17.681Z,58.46
2018-06-24T05:20:46.305Z,58.92
2018-06-24T05:23:14.988Z,59.40
2018-06-24T05:25:43.615Z,58.80
2018-06-24T05:28:12.236Z,58.00
2018-06-24T05:30:41.046Z,58.44
2018-06-24T05:33:09.661Z,58.42
2018-06-24T05:35:38.291Z,57.00
2018-06-24T05:38:06.942Z,57.85
2018-06-24T05:40:35.618Z,57.93
2018-06-24T05:43:04.320Z,57.83
2018-06-24T05:45:33.055Z,57.26
2018-06-24T05:48:01.858Z,56.88
2018-06-24T05:50:30.688Z,56.89
2018-06-24T05:52:59.333Z,56.67
2018-06-24T05:55:27.979Z,55.72
2018-06-24T05:57:56.635Z,56.05
2018-06-24T06:00:25.490Z,56.29
2018-06-24T06:02:54.287Z,56.29
2018-06-24T06:05:23.242Z,56.68
2018-06-24T06:07:52.003Z,56.58
2018-06-24T06:10:20.788Z,56.05
2018-06-24T06:12:49.362Z,55.61
2018-06-24T06:15:18.126Z,54.53
2018-06-24T06:17:46.795Z,54.40
2018-06-24T06:20:15.466Z,53.92
2018-06-24T06:22:44.116Z,54.18
2018-06-24T06:25:12.805Z,52.48
2018-06-24T06:27:41.656Z,52.60
2018-06-24T06:30:10.515Z,50.56
2018-06-24T06:32:40.133Z,48.56
2018-06-24T06:35:08.798Z,50.21
2018-06-24T06:37:37.442Z,50.92
2018-06-24T06:40:06.346Z,50.69
2018-06-24T06:42:34.959Z,51.53
2018-06-24T06:45:03.760Z,51.81
2018-06-24T06:47:32.428Z,51.20
2018-06-24T06:50:01.058Z,51.17
2018-06-24T06:52:30.609Z,50.64
2018-06-24T06:54:59.295Z,49.79
2018-06-24T06:57:28.652Z,49.54
2018-06-24T06:59:57.321Z,48.95
2018-06-24T07:02:25.978Z,48.98
2018-06-24T07:04:54.586Z,47.71
2018-06-24T07:07:23.252Z,48.12
2018-06-24T07:09:51.882Z,48.49
2018-06-24T07:12:20.589Z,47.83
2018-06-24T07:14:49.212Z,47.08
2018-06-24T07:17:17.957Z,46.99
2018-06-24T07:19:46.618Z,45.65
2018-06-24T07:22:15.277Z,46.63
2018-06-24T07:24:43.909Z,46.44
2018-06-24T07:27:12.619Z,46.44
2018-06-24T07:29:41.268Z,46.14
2018-06-24T07:32:10.000Z,43.54
2018-06-24T07:34:38.614Z,44.69
2018-06-24T07:37:07.244Z,43.90
2018-06-24T07:39:35.903Z,44.53
2018-06-24T07:42:04.543Z,43.23
2018-06-24T07:44:33.157Z,42.95
2018-06-24T07:47:01.813Z,43.12
2018-06-24T19:25:17.594Z,49.52
2018-06-24T19:27:46.383Z,48.74
2018-06-24T19:30:15.023Z,48.99
2018-06-24T19:32:43.792Z,49.00
2018-06-24T19:35:12.494Z,49.64
2018-06-24T19:37:41.346Z,48.07
2018-06-24T19:40:10.124Z,49.17
2018-06-24T19:42:39.675Z,49.11
2018-06-24T19:45:08.830Z,48.90
2018-06-24T19:47:37.516Z,48.60
2018-06-24T19:50:06.446Z,48.79
2018-06-24T19:52:35.435Z,50.09
2018-06-24T19:55:04.284Z,50.27
2018-06-24T19:57:32.981Z,50.09
2018-06-24T20:00:02.157Z,50.25
2018-06-24T20:02:30.899Z,50.72
2018-06-24T20:04:59.682Z,50.70
2018-06-24T20:07:28.343Z,50.28
2018-06-24T20:09:57.082Z,50.36
2018-06-24T20:12:27.280Z,50.32
2018-06-24T20:14:56.036Z,50.32
2018-06-24T20:17:24.798Z,50.37
2018-06-24T20:19:53.492Z,49.63
2018-06-24T20:22:22.128Z,51.03
2018-06-24T20:24:50.969Z,50.75
2018-06-24T20:27:19.669Z,50.13
2018-06-24T20:29:48.435Z,50.40
2018-06-24T20:32:17.037Z,50.82
2018-06-24T20:34:45.900Z,50.22
2018-06-24T20:37:14.623Z,51.46
2018-06-24T20:39:43.348Z,51.65
2018-06-24T20:42:12.031Z,51.38
2018-06-24T20:44:40.789Z,51.48
2018-06-24T20:47:09.559Z,51.43
2018-06-24T20:49:38.514Z,51.87
2018-06-24T20:52:07.288Z,50.94
2018-06-24T20:54:36.037Z,51.94
2018-06-24T20:57:04.850Z,51.29
2018-06-24T20:59:33.631Z,51.49
2018-06-24T21:02:02.347Z,51.29
2018-06-24T21:04:31.717Z,51.86
2018-06-24T21:07:00.406Z,51.57
2018-06-24T21:09:29.120Z,52.85
2018-06-24T21:11:57.771Z,52.88
2018-06-24T21:14:26.432Z,53.98
2018-06-24T21:16:55.142Z,53.25
2018-06-24T21:19:23.798Z,53.02
2018-06-24T21:21:52.499Z,53.45
2018-06-24T21:24:25.435Z,53.30
2018-06-24T21:26:54.136Z,54.71
2018-06-24T21:29:22.905Z,53.90
2018-06-24T21:31:51.611Z,52.81
2018-06-24T21:34:20.343Z,52.18
2018-06-24T21:36:49.050Z,52.91
2018-06-24T21:39:17.768Z,53.83
2018-06-24T21:41:46.400Z,53.25
2018-06-24T21:44:15.033Z,54.27
2018-06-24T21:46:43.713Z,55.07
2018-06-24T21:49:12.438Z,54.24
2018-06-24T21:51:41.169Z,54.52
2018-06-24T21:54:09.872Z,54.23
2018-06-24T21:56:38.629Z,52.51
2018-06-24T21:59:07.378Z,54.37
2018-06-24T22:01:37.036Z,54.29
2018-06-24T22:04:05.965Z,54.32
2018-06-24T22:06:34.679Z,55.31
2018-06-24T22:09:03.740Z,55.11
2018-06-24T22:11:32.514Z,54.55
2018-06-24T22:14:01.146Z,56.22
2018-06-24T22:16:29.799Z,55.66
2018-06-24T22:18:58.466Z,55.93
2018-06-24T22:21:27.358Z,55.90
2018-06-24T22:23:56.370Z,56.22
2018-06-24T22:26:25.153Z,55.81
2018-06-24T22:28:53.849Z,56.14
2018-06-24T22:31:22.543Z,56.43
2018-06-24T22:33:51.249Z,56.30
2018-06-24T22:36:19.948Z,55.97
2018-06-24T22:38:48.669Z,56.62
2018-06-24T22:41:17.320Z,56.48
2018-06-24T22:43:46.072Z,56.28
2018-06-24T22:46:14.903Z,56.38
2018-06-24T22:48:43.552Z,56.57
2018-06-24T22:51:12.939Z,56.12
2018-06-24T22:53:41.645Z,56.57
2018-06-24T22:56:10.358Z,56.63
2018-06-24T22:58:38.965Z,55.45
2018-06-24T23:01:07.730Z,56.63
2018-06-24T23:03:36.485Z,56.33
2018-06-24T23:06:05.182Z,56.50
2018-06-24T23:08:33.907Z,57.44
2018-06-24T23:11:02.588Z,59.08
2018-06-24T23:13:31.948Z,58.68
2018-06-24T23:16:00.711Z,59.08
2018-06-24T23:18:29.372Z,58.94
2018-06-24T23:20:58.242Z,58.77
2018-06-24T23:23:26.933Z,59.12
2018-06-24T23:25:55.638Z,59.04
2018-06-24T23:28:24.748Z,58.80
2018-06-24T23:30:53.467Z,58.45
2018-06-24T23:33:22.145Z,59.06
2018-06-24T23:35:50.857Z,58.71
2018-06-24T23:38:19.526Z,57.64
2018-06-24T23:40:48.307Z,58.60
2018-06-24T23:43:16.966Z,58.67
2018-06-24T23:45:45.638Z,58.10
2018-06-24T23:48:14.279Z,58.48
2018-06-24T23:50:42.958Z,58.08
2018-06-24T23:53:11.644Z,58.37
2018-06-24T23:55:40.552Z,58.70
2018-06-24T23:58:09.298Z,58.73
